Sheep Mountain, AK

8:29 AM AKDT on July 29, 2014 (GMT -0800)
Wasilla (PAWS) Elev 351 ft | 61.57 °N, 149.54 °W | Change Station

Current weather conditions updated 13 minutes ago

Overcast
Overcast
46 °F
Feels Like 46 °F
N
0
Wind Variable Wind from North

Today is forecast to be Warmer than yesterday. Showers possible early tonight.

Today
High -- | Low -- °F
--% Chance of Precip.
Yesterday
High -- | Low -- °F
Precip. -- in
5:10 AM 10:40 PM
Waxing Crescent, 7% visible
Pressure 29.98 in
Visibility 0.2 miles
Clouds Overcast 100 ft
Dew Point 43 °F
Humidity 87%
Rainfall 0.00 in
Snow Depth Not available.
UV 0 out of 12
Pollen Not available.
Air Quality Not available.
Flu Activity Not available.
METAR PAWS 291616Z AUTO 00000KT 1/4SM OVC001 08/06 A2998 RMK AO1

More Conditions Fewer Conditions

Pressure 29.98 in
Visibility 0.2 miles
Clouds Overcast 100 ft
Dew Point 43 °F
Humidity 87%
Rainfall 0.00 in
Snow Depth Not available.
UV 0 out of 12
Pollen Not available.
Air Quality Not available.
Flu Activity Not available.
METAR PAWS 291616Z AUTO 00000KT 1/4SM OVC001 08/06 A2998 RMK AO1

More Conditions Fewer Conditions

10-Day Weather Forecast

Almanac

Astronomy

Jul. 29, 2014 Rise Set
Actual Time 5:10 AM AKDT 10:40 PM AKDT
Civil Twilight 3:56 AM AKDT 11:52 PM AKDT
Nautical Twilight 2:28 AM AKDT 1:24 AM AKDT
Astronomical Twilight Sun does not rise Sun does not rise
Moon 9:06 AM AKDT 10:39 PM AKDT
Length of Visible Light 19h 55m
Length of Day
17h 30m
Tomorrow will be 5m 22s shorter.
Waxing Crescent, 7% of the Moon is Illuminated
Today
Waxing Crescent
Aug 3
First Quarter
Aug 10
Full
Aug 17
Last Quarter
Aug 25
New

Today's Extremes

State Highs State Lows

Community

WunderPhotos

Upload Photos

1,738,783 photos uploaded!

Nearby

Snow Depth

Station Depth Elevation
Moraine 0 in 2100 ft
Upper Tsaina River 0 in 1750 ft
Indian Pass 1 in 2300 ft
Susitna Valley High 109 in 375 ft
Point Mackenzie 1 in 200 ft

Earthquake Activity

City Distance Mag. Time & Date
No recent earthquake activity has been reported nearby.
Minimum magnitude displayed is 2.5.

Coastal Water Temperatures

Place Temperature
No Stations Reporting

Nearby Weather Stations

Station Location Temp. Windchill Dew Point Humidity Wind Precip. Elev Updated Type
AKDOT Glenn Highway @ Gunsight Mountain , Tatitlek, AK 47 °F 44 °F 41 °F 79% NNE  at  6 mph 0.00 in / hr 3234 ft 8:00 AM AKDT MADIS
Glacier View, Glacier View, AK 47.3 °F 45 °F 44 °F 87% ESE  at  4.9 mph 0.00 in / hr 2500 ft 8:29 AM AKDT Rapid Fire

Show More Stations Show Fewer Stations